Time;durP1;ratioP1;P1;durP2;ratioP2;P2;SDS_P1;SDS_P2;PMS_P1;PMS_P2;Temp;Humidity;BMP_temperature;BMP_pressure;BME280_temperature;BME280_humidity;BME280_pressure;Samples;Min_cycle;Max_cycle;Signal;HPM_P1;HPM_P2
2022/12/17 13:06:53;;;;;;;7.82;6.18;;;18.80;46.50;;;;;;5051737;28;20664;-70
2022/12/17 13:09:22;;;;;;;7.68;5.82;;;18.80;46.60;;;;;;5051272;28;20186;-69
2022/12/17 13:12:02;;;;;;;6.28;5.68;;;18.80;46.50;;;;;;5051439;28;20233;-69
2022/12/17 13:14:35;;;;;;;6.00;5.50;;;18.70;46.50;;;;;;5052233;28;20252;-69
2022/12/17 13:17:20;;;;;;;6.65;6.05;;;18.70;46.50;;;;;;5053509;28;20201;-69
2022/12/17 13:19:57;;;;;;;7.97;6.20;;;18.70;46.50;;;;;;5039672;28;20612;-71
2022/12/17 13:22:26;;;;;;;7.53;6.53;;;18.70;46.60;;;;;;5055376;28;20179;-72
2022/12/17 13:24:53;;;;;;;7.25;6.55;;;18.70;46.60;;;;;;5055644;28;20175;-72
2022/12/17 13:27:30;;;;;;;7.85;6.85;;;18.60;46.40;;;;;;5054940;28;20257;-73
2022/12/17 13:29:55;;;;;;;8.45;7.32;;;18.50;46.30;;;;;;5055493;28;20167;-72
2022/12/17 13:32:29;;;;;;;8.52;7.57;;;18.50;46.20;;;;;;5038356;28;20175;-72
2022/12/17 13:35:28;;;;;;;9.43;8.40;;;18.40;46.10;;;;;;5037530;28;20215;-71
2022/12/17 13:38:14;;;;;;;10.13;7.57;;;18.30;46.00;;;;;;5054657;28;20182;-72
2022/12/17 13:40:43;;;;;;;10.07;8.70;;;18.30;45.90;;;;;;5055088;28;20167;-71
2022/12/17 13:43:20;;;;;;;9.05;8.07;;;18.30;46.00;;;;;;5055809;28;20658;-71
2022/12/17 13:45:46;;;;;;;10.25;7.93;;;18.30;46.00;;;;;;5054173;28;20233;-66
2022/12/17 13:48:19;;;;;;;8.30;7.50;;;18.30;46.00;;;;;;5054753;28;20179;-69
2022/12/17 13:50:59;;;;;;;8.25;7.25;;;18.30;46.10;;;;;;5055329;28;20205;-68
2022/12/17 13:53:25;;;;;;;7.30;6.60;;;18.40;46.10;;;;;;5055512;28;20233;-67
2022/12/17 13:55:53;;;;;;;7.18;6.47;;;18.40;46.10;;;;;;5054983;28;20187;-68
2022/12/17 13:58:25;;;;;;;6.65;5.95;;;18.40;46.20;;;;;;5055195;28;20175;-67
2022/12/17 14:01:02;;;;;;;7.32;6.53;;;18.50;47.00;;;;;;5054963;28;20663;-68
2022/12/17 14:03:27;;;;;;;6.93;6.22;;;18.50;46.30;;;;;;5055132;28;20194;-70
2022/12/17 14:05:54;;;;;;;6.55;5.93;;;18.50;46.40;;;;;;5055354;28;20175;-69
2022/12/17 14:08:20;;;;;;;6.20;5.60;;;18.50;46.50;;;;;;5053170;28;20175;-71
2022/12/17 14:12:20;;;;;;;6.68;6.00;;;18.50;46.50;;;;;;5054822;28;20183;-68
2022/12/17 14:13:37;;;;;;;5.65;5.15;;;18.50;46.50;;;;;;5054517;28;20231;-68
2022/12/17 14:16:03;;;;;;;6.00;5.25;;;18.50;46.50;;;;;;5054702;28;20179;-74
2022/12/17 14:18:32;;;;;;;6.18;5.57;;;18.60;46.60;;;;;;5054027;28;20171;-72
2022/12/17 14:20:57;;;;;;;6.55;5.95;;;18.60;46.60;;;;;;5053876;28;20183;-66
2022/12/17 14:23:27;;;;;;;7.05;6.20;;;18.60;46.50;;;;;;5054813;28;20175;-67
2022/12/17 14:25:53;;;;;;;10.43;5.85;;;18.60;46.60;;;;;;5053931;28;20190;-67
2022/12/17 14:28:22;;;;;;;6.38;5.75;;;18.60;46.70;;;;;;5053325;28;20176;-69
2022/12/17 14:30:48;;;;;;;6.53;5.85;;;18.60;46.80;;;;;;5053652;28;20182;-68
2022/12/17 14:33:30;;;;;;;5.68;5.10;;;18.60;46.80;;;;;;5054952;28;20171;-69
2022/12/17 14:35:56;;;;;;;5.95;5.45;;;18.50;46.80;;;;;;5054656;28;20297;-68
2022/12/17 14:38:21;;;;;;;5.85;4.85;;;18.50;46.90;;;;;;5037076;28;20171;-66
2022/12/17 14:40:47;;;;;;;5.97;5.25;;;18.50;47.00;;;;;;5053031;28;20219;-68
2022/12/17 14:43:13;;;;;;;6.88;5.47;;;18.50;47.60;;;;;;5053624;28;20220;-68
2022/12/17 14:46:19;;;;;;;6.10;5.50;;;18.50;47.00;;;;;;5054244;28;20178;-67
2022/12/17 14:48:59;;;;;;;6.40;5.50;;;18.60;47.10;;;;;;5053702;28;20182;-68
2022/12/17 14:51:21;;;;;;;5.25;4.75;;;18.60;47.10;;;;;;5052393;28;20182;-70
2022/12/17 14:53:46;;;;;;;5.82;5.32;;;18.60;47.20;;;;;;5036153;28;20718;-68
2022/12/17 14:56:21;;;;;;;5.22;4.82;;;18.60;47.20;;;;;;5054106;28;20258;-67
2022/12/17 14:58:46;;;;;;;5.40;4.75;;;18.60;47.80;;;;;;5052652;28;20206;-67
2022/12/17 15:01:12;;;;;;;6.13;5.50;;;18.60;47.30;;;;;;5054469;28;20221;-68
2022/12/17 15:03:40;;;;;;;7.47;6.05;;;18.60;47.10;;;;;;5053076;28;20171;-68
2022/12/17 15:06:07;;;;;;;5.85;5.35;;;18.50;47.10;;;;;;5053973;28;20175;-68
2022/12/17 15:08:41;;;;;;;8.45;5.82;;;18.60;47.20;;;;;;5054109;28;20179;-67
2022/12/17 15:11:07;;;;;;;5.80;5.20;;;18.60;47.20;;;;;;5054089;28;20179;-67
2022/12/17 15:13:32;;;;;;;6.30;5.30;;;18.50;47.30;;;;;;5052870;28;20234;-66
2022/12/17 15:15:58;;;;;;;5.68;5.03;;;18.60;47.30;;;;;;5054036;28;20179;-66
2022/12/17 15:18:23;;;;;;;6.38;5.45;;;18.50;47.30;;;;;;5052976;28;20177;-66
2022/12/17 15:20:49;;;;;;;6.07;5.50;;;18.50;47.30;;;;;;5053178;28;20206;-66
2022/12/17 15:23:16;;;;;;;5.35;4.85;;;18.50;48.00;;;;;;5053673;28;20171;-67
2022/12/17 15:25:41;;;;;;;5.68;5.05;;;18.50;48.10;;;;;;5052804;28;20185;-67
2022/12/17 15:28:08;;;;;;;5.78;5.22;;;18.40;47.60;;;;;;5053727;28;20179;-70
2022/12/17 15:30:34;;;;;;;5.60;5.10;;;18.30;47.60;;;;;;5052052;28;20187;-69
2022/12/17 15:32:59;;;;;;;6.18;5.68;;;18.30;47.70;;;;;;5052639;28;20225;-69
2022/12/17 15:35:25;;;;;;;5.85;5.32;;;18.30;47.90;;;;;;5053596;28;20215;-67
2022/12/17 15:37:50;;;;;;;5.45;4.90;;;18.20;47.90;;;;;;5053266;28;20217;-67
2022/12/17 15:40:16;;;;;;;6.38;5.78;;;18.20;48.00;;;;;;5052308;28;20179;-67
2022/12/17 15:45:25;;;;;;;5.85;5.10;;;18.30;48.00;;;;;;5053250;28;20609;-67
2022/12/17 15:47:51;;;;;;;6.50;5.28;;;18.30;48.00;;;;;;5052233;28;20175;-69
2022/12/17 15:50:16;;;;;;;5.82;5.30;;;18.30;48.00;;;;;;5053366;28;20220;-67
2022/12/17 15:52:42;;;;;;;5.65;5.15;;;18.30;48.00;;;;;;5052873;28;20179;-67
2022/12/17 15:55:08;;;;;;;5.15;4.75;;;18.30;47.90;;;;;;5052293;28;20215;-68
2022/12/17 15:57:34;;;;;;;5.10;4.57;;;18.40;48.00;;;;;;5052909;28;20300;-62
2022/12/17 15:59:59;;;;;;;4.93;4.43;;;18.30;48.10;;;;;;5053381;28;20701;-60
2022/12/17 16:02:25;;;;;;;6.78;5.55;;;18.40;48.00;;;;;;5053469;28;20171;-60
2022/12/17 16:04:51;;;;;;;7.75;5.88;;;18.40;47.90;;;;;;5052707;28;20208;-59
2022/12/17 16:07:17;;;;;;;5.90;5.28;;;18.40;47.80;;;;;;5053071;28;20206;-60
2022/12/17 16:09:42;;;;;;;6.70;5.35;;;18.50;47.90;;;;;;5051827;28;20202;-60
2022/12/17 16:12:08;;;;;;;5.50;5.00;;;18.40;47.90;;;;;;5052839;28;20177;-59
2022/12/17 16:14:33;;;;;;;5.72;5.22;;;18.40;48.00;;;;;;5052149;28;20261;-61
2022/12/17 16:16:59;;;;;;;6.45;5.25;;;18.40;48.00;;;;;;5052543;28;20170;-62
2022/12/17 16:19:27;;;;;;;6.07;5.28;;;18.50;48.10;;;;;;5053125;28;20286;-60
2022/12/17 16:21:53;;;;;;;5.68;5.18;;;18.50;48.10;;;;;;5051965;28;20266;-60
2022/12/17 16:24:18;;;;;;;5.38;4.88;;;18.60;48.10;;;;;;5052863;28;20704;-59
2022/12/17 16:26:44;;;;;;;8.02;5.72;;;18.60;48.20;;;;;;5052615;28;20678;-60
2022/12/17 16:29:09;;;;;;;5.45;4.95;;;18.60;48.10;;;;;;5051967;28;20661;-61
2022/12/17 16:31:36;;;;;;;5.35;4.95;;;18.50;48.10;;;;;;5052605;28;20626;-61
2022/12/17 16:34:01;;;;;;;7.20;5.22;;;18.50;48.20;;;;;;5052854;28;20288;-61
2022/12/17 16:36:27;;;;;;;5.35;4.85;;;18.50;48.20;;;;;;5051986;28;20633;-59
2022/12/17 16:38:53;;;;;;;5.35;4.78;;;18.40;48.10;;;;;;5052496;28;20167;-59
2022/12/17 16:41:19;;;;;;;5.88;4.82;;;18.30;48.10;;;;;;5052798;28;20186;-60
2022/12/17 16:43:44;;;;;;;6.03;5.43;;;18.30;48.20;;;;;;5051677;28;20185;-60
2022/12/17 16:46:32;;;;;;;7.32;5.35;;;18.20;48.40;;;;;;5052961;28;20191;-59
2022/12/17 16:48:59;;;;;;;6.35;5.25;;;18.30;48.50;;;;;;5052865;28;20208;-60
2022/12/17 16:51:25;;;;;;;6.53;5.28;;;18.20;48.40;;;;;;5052649;28;20233;-60
2022/12/17 16:53:51;;;;;;;7.65;5.65;;;18.20;48.50;;;;;;5056239;28;20202;-60
2022/12/17 16:56:19;;;;;;;7.30;5.65;;;18.30;48.60;;;;;;5056378;28;20190;-60
2022/12/17 16:58:44;;;;;;;7.35;5.10;;;18.30;48.50;;;;;;5055334;28;20175;-59
2022/12/17 17:01:10;;;;;;;5.25;4.80;;;18.30;48.40;;;;;;5056324;28;20182;-59
2022/12/17 17:03:42;;;;;;;5.47;4.95;;;18.30;48.40;;;;;;5056258;28;20172;-60
2022/12/17 17:06:08;;;;;;;6.60;5.47;;;18.40;48.40;;;;;;5055701;28;20202;-60
2022/12/17 17:08:35;;;;;;;5.85;4.97;;;18.40;48.40;;;;;;5055953;28;20510;-60
2022/12/17 17:11:21;;;;;;;5.30;4.80;;;18.40;48.30;;;;;;5055601;28;20311;-60
2022/12/17 17:13:48;;;;;;;6.30;5.20;;;18.40;48.20;;;;;;5055589;28;20234;-60
2022/12/17 17:16:14;;;;;;;5.03;4.55;;;18.30;48.30;;;;;;5056133;28;20266;-60
2022/12/17 17:18:39;;;;;;;6.10;5.50;;;18.30;48.40;;;;;;5055150;28;20175;-59
2022/12/17 17:21:24;;;;;;;5.72;5.22;;;18.20;48.40;;;;;;5056005;28;20175;-59
2022/12/17 17:23:58;;;;;;;5.47;4.97;;;18.20;48.60;;;;;;5055840;28;20175;-59
2022/12/17 17:26:24;;;;;;;7.53;5.28;;;18.20;48.70;;;;;;5055426;28;20171;-59
2022/12/17 17:28:50;;;;;;;5.63;5.10;;;18.20;48.70;;;;;;5055676;28;20179;-59
2022/12/17 17:31:16;;;;;;;6.05;4.80;;;18.20;48.70;;;;;;5055501;28;20197;-59
2022/12/17 17:33:45;;;;;;;5.50;4.80;;;18.20;48.70;;;;;;5054764;28;20171;-59
2022/12/17 17:36:15;;;;;;;5.60;5.00;;;18.20;49.30;;;;;;5055989;28;20183;-59
2022/12/17 17:38:40;;;;;;;5.57;5.00;;;18.20;48.70;;;;;;5055479;28;20179;-60
2022/12/17 17:41:08;;;;;;;5.70;5.18;;;18.20;48.60;;;;;;5054693;28;20252;-60
2022/12/17 17:43:33;;;;;;;5.63;5.13;;;18.20;48.70;;;;;;5054206;28;20190;-60
2022/12/17 17:46:06;;;;;;;5.55;5.05;;;18.30;48.60;;;;;;5055647;28;20167;-60
2022/12/17 17:48:32;;;;;;;5.15;4.63;;;18.30;48.50;;;;;;5055209;28;20209;-60
2022/12/17 17:51:02;;;;;;;6.32;5.57;;;18.30;48.40;;;;;;5055694;28;20179;-60
2022/12/17 17:53:27;;;;;;;5.30;4.80;;;18.30;48.30;;;;;;5054917;28;20228;-58
2022/12/17 17:55:53;;;;;;;5.90;5.15;;;18.30;48.10;;;;;;5055298;28;20211;-61
2022/12/17 17:58:19;;;;;;;8.15;6.38;;;18.20;48.00;;;;;;5055389;28;20184;-57
2022/12/17 18:00:44;;;;;;;7.10;6.40;;;18.20;48.10;;;;;;5054214;28;20545;-57
2022/12/17 18:03:10;;;;;;;8.18;6.95;;;18.10;48.00;;;;;;5054597;28;20190;-53
2022/12/17 18:05:38;;;;;;;7.82;7.03;;;18.00;48.00;;;;;;5055113;28;20175;-58
2022/12/17 18:08:04;;;;;;;7.90;6.60;;;18.00;48.00;;;;;;5054434;28;20283;-61
2022/12/17 18:10:30;;;;;;;9.35;7.18;;;18.00;47.90;;;;;;5055193;28;20179;-61
2022/12/17 18:15:40;;;;;;;9.23;6.53;;;18.30;47.90;;;;;;5053900;28;20341;-62
2022/12/17 18:18:05;;;;;;;9.85;6.72;;;18.40;47.70;;;;;;5055143;28;20242;-62
2022/12/17 18:20:31;;;;;;;8.00;6.68;;;18.70;47.40;;;;;;5054723;28;20297;-62
2022/12/17 18:22:56;;;;;;;9.50;6.65;;;18.80;47.10;;;;;;5054364;28;20643;-61
2022/12/17 18:25:22;;;;;;;9.20;6.15;;;19.00;46.80;;;;;;5054842;28;20682;-61
2022/12/17 18:27:50;;;;;;;10.10;6.65;;;19.10;46.40;;;;;;5054546;28;20743;-62
2022/12/17 18:30:15;;;;;;;10.32;7.07;;;19.10;46.00;;;;;;5053943;28;20183;-61
2022/12/17 18:32:41;;;;;;;9.48;6.75;;;19.20;46.00;;;;;;5054593;28;20171;-61
2022/12/17 18:35:07;;;;;;;7.63;6.40;;;19.20;45.90;;;;;;5054694;28;20211;-63
2022/12/17 18:37:32;;;;;;;7.22;6.25;;;19.30;45.90;;;;;;5053696;28;20172;-63
2022/12/17 18:39:58;;;;;;;7.95;6.07;;;19.40;45.90;;;;;;5054591;28;20182;-63
2022/12/17 18:45:13;;;;;;;6.72;5.68;;;19.50;45.60;;;;;;5054563;28;20281;-62
2022/12/17 18:47:41;;;;;;;8.18;5.82;;;19.60;45.70;;;;;;5054203;28;20234;-63
2022/12/17 18:50:07;;;;;;;7.57;5.85;;;19.70;45.40;;;;;;5053694;28;20180;-62
2022/12/17 18:52:32;;;;;;;6.18;5.57;;;19.70;45.50;;;;;;5054206;28;20179;-62
2022/12/17 18:54:58;;;;;;;6.65;5.63;;;19.60;45.50;;;;;;5054176;28;20560;-62
2022/12/17 18:57:23;;;;;;;6.00;5.40;;;19.70;45.60;;;;;;5052236;28;20168;-62
2022/12/17 18:59:52;;;;;;;6.60;5.53;;;19.70;45.50;;;;;;5053824;28;20228;-62
2022/12/17 19:02:17;;;;;;;7.43;6.15;;;19.70;45.50;;;;;;5054249;28;20345;-62
2022/12/17 19:04:43;;;;;;;5.65;5.10;;;19.70;45.60;;;;;;5053111;28;20630;-62
2022/12/17 19:07:08;;;;;;;7.63;5.82;;;19.70;45.70;;;;;;5053970;28;20645;-61
2022/12/17 19:09:34;;;;;;;11.10;6.25;;;19.70;45.60;;;;;;5053601;28;20179;-62
2022/12/17 19:12:00;;;;;;;8.10;5.72;;;19.60;45.70;;;;;;5053517;28;20285;-61
2022/12/17 19:14:25;;;;;;;6.22;5.63;;;19.60;45.60;;;;;;5052861;28;20566;-61
2022/12/17 19:16:52;;;;;;;7.45;5.82;;;19.70;45.70;;;;;;5053642;28;20630;-61
2022/12/17 19:19:17;;;;;;;6.10;5.50;;;19.60;45.80;;;;;;5053188;28;20537;-61
2022/12/17 19:21:43;;;;;;;6.63;5.80;;;19.60;45.80;;;;;;5052918;28;20171;-60
2022/12/17 19:24:11;;;;;;;6.70;5.40;;;19.70;45.90;;;;;;5053909;28;20261;-60
2022/12/17 19:26:37;;;;;;;6.13;5.55;;;19.70;45.80;;;;;;5051749;28;20187;-60
2022/12/17 19:29:03;;;;;;;6.82;6.13;;;19.70;45.70;;;;;;5053779;28;20225;-60
2022/12/17 19:31:29;;;;;;;9.68;5.90;;;19.70;45.80;;;;;;5053628;28;20181;-60
2022/12/17 19:33:56;;;;;;;6.97;5.85;;;19.70;45.70;;;;;;5052759;28;20221;-62
2022/12/17 19:36:22;;;;;;;7.05;6.28;;;19.70;45.70;;;;;;5052361;28;20183;-60
2022/12/17 19:38:51;;;;;;;8.25;6.68;;;19.60;45.60;;;;;;5052219;28;20187;-61
2022/12/17 19:41:17;;;;;;;8.30;6.50;;;19.70;45.40;;;;;;5053637;28;20186;-62
2022/12/17 19:43:44;;;;;;;7.60;6.90;;;19.60;45.50;;;;;;5053272;28;20167;-62
2022/12/17 19:46:14;;;;;;;6.85;6.10;;;19.60;45.40;;;;;;5052776;28;20245;-62
2022/12/17 19:48:39;;;;;;;6.97;6.15;;;19.60;45.50;;;;;;5053004;28;20544;-61
2022/12/17 19:51:05;;;;;;;7.03;6.32;;;19.70;45.40;;;;;;5053186;28;20190;-61
2022/12/17 19:53:31;;;;;;;7.10;5.97;;;19.60;45.40;;;;;;5051908;28;20254;-61
2022/12/17 19:56:27;;;;;;;7.13;6.43;;;19.70;45.40;;;;;;5053335;28;20218;-60
2022/12/17 19:58:54;;;;;;;6.80;5.70;;;19.70;45.30;;;;;;5051487;28;20313;-61
2022/12/17 20:01:24;;;;;;;6.82;6.13;;;19.70;45.40;;;;;;5052458;28;20214;-60
2022/12/17 20:03:50;;;;;;;7.43;6.47;;;19.60;45.50;;;;;;5052852;28;20177;-61
2022/12/17 20:06:16;;;;;;;7.43;6.70;;;19.60;45.50;;;;;;5052940;28;20171;-61
2022/12/17 20:08:42;;;;;;;8.05;6.72;;;19.60;45.50;;;;;;5052230;28;20183;-61
2022/12/17 20:14:05;;;;;;;6.75;6.07;;;19.70;45.50;;;;;;5051810;28;20641;-65
2022/12/17 20:16:32;;;;;;;8.15;6.90;;;19.60;45.30;;;;;;5052778;28;20175;-63
2022/12/17 20:18:59;;;;;;;8.65;7.00;;;19.70;45.20;;;;;;5053035;28;20179;-63
2022/12/17 20:21:24;;;;;;;8.40;7.57;;;19.70;45.00;;;;;;5052121;28;20657;-63
2022/12/17 20:23:50;;;;;;;8.15;6.90;;;19.60;45.10;;;;;;5052582;28;20288;-60
2022/12/17 20:26:16;;;;;;;7.50;6.70;;;19.60;45.20;;;;;;5052588;28;20261;-60
2022/12/17 20:28:42;;;;;;;8.35;6.70;;;19.60;45.30;;;;;;5051781;28;20248;-60
2022/12/17 20:31:07;;;;;;;9.07;7.30;;;19.60;45.20;;;;;;5052312;28;20210;-60
2022/12/17 20:33:33;;;;;;;8.05;7.18;;;19.60;45.20;;;;;;5052701;28;20534;-60
2022/12/17 20:36:17;;;;;;;8.93;7.38;;;19.50;45.20;;;;;;5051927;28;20637;-61
2022/12/17 20:38:43;;;;;;;10.68;7.65;;;19.60;45.10;;;;;;5052513;28;20512;-61
2022/12/17 20:41:16;;;;;;;9.50;7.88;;;19.60;45.10;;;;;;5052573;28;20236;-61
2022/12/17 20:43:42;;;;;;;8.40;7.60;;;19.50;45.10;;;;;;5051916;28;20183;-61
2022/12/17 20:46:08;;;;;;;8.05;7.25;;;19.60;45.10;;;;;;5052543;28;20274;-61
2022/12/17 20:48:34;;;;;;;8.68;7.78;;;19.50;45.00;;;;;;5052416;28;20233;-61
2022/12/17 20:51:30;;;;;;;10.93;7.50;;;19.50;45.10;;;;;;5052040;28;20229;-62
2022/12/17 20:53:56;;;;;;;8.25;7.45;;;19.50;45.00;;;;;;5051269;28;20187;-62
2022/12/17 20:56:26;;;;;;;9.50;8.00;;;19.60;45.10;;;;;;5051924;28;20194;-60
2022/12/17 20:58:57;;;;;;;8.57;7.30;;;19.50;45.00;;;;;;5052378;28;20179;-60
2022/12/17 21:01:24;;;;;;;8.73;7.82;;;19.60;44.90;;;;;;5052289;28;20547;-61
2022/12/17 21:03:50;;;;;;;8.45;7.40;;;19.60;45.00;;;;;;5051611;28;20203;-60
2022/12/17 21:06:18;;;;;;;8.45;7.55;;;19.50;44.90;;;;;;5052421;28;20190;-62
2022/12/17 21:08:47;;;;;;;9.65;8.38;;;19.50;45.00;;;;;;5052177;28;20634;-61
2022/12/17 21:11:12;;;;;;;10.18;9.07;;;19.50;45.00;;;;;;5052031;28;20182;-62
2022/12/17 21:13:38;;;;;;;10.35;8.77;;;19.50;44.80;;;;;;5051972;28;20302;-62
2022/12/17 21:16:11;;;;;;;10.02;8.55;;;19.50;44.50;;;;;;5052367;28;20254;-62
2022/12/17 21:18:37;;;;;;;9.98;8.73;;;19.50;44.60;;;;;;5051424;28;20186;-65
2022/12/17 21:21:07;;;;;;;11.65;9.80;;;19.40;44.50;;;;;;5052550;28;20175;-63
2022/12/17 21:23:33;;;;;;;10.85;8.85;;;19.40;44.40;;;;;;5052285;28;20548;-63
2022/12/17 21:26:10;;;;;;;11.02;9.75;;;19.40;44.60;;;;;;5051786;28;20282;-62
2022/12/17 21:28:36;;;;;;;9.77;8.18;;;19.40;44.60;;;;;;5052078;28;20186;-62
2022/12/17 21:31:02;;;;;;;10.73;8.85;;;19.40;44.60;;;;;;5052332;28;20172;-62
2022/12/17 21:33:28;;;;;;;10.95;8.50;;;19.40;44.70;;;;;;5051564;28;20190;-62
2022/12/17 21:36:06;;;;;;;9.38;8.40;;;19.50;44.80;;;;;;5051796;28;20210;-62
2022/12/17 21:38:31;;;;;;;10.05;8.98;;;19.50;44.80;;;;;;5053129;28;20178;-63
2022/12/17 21:41:03;;;;;;;9.15;8.25;;;19.50;44.70;;;;;;5055918;28;20179;-63
2022/12/17 21:43:29;;;;;;;8.73;7.82;;;19.50;44.80;;;;;;5055805;28;20191;-64
2022/12/17 21:45:55;;;;;;;9.65;8.65;;;19.50;44.90;;;;;;5054704;28;20167;-64
2022/12/17 21:48:21;;;;;;;9.63;8.63;;;19.50;44.80;;;;;;5055799;28;20179;-64
2022/12/17 21:50:49;;;;;;;9.93;8.88;;;19.50;44.90;;;;;;5055383;28;20171;-64
2022/12/17 21:53:14;;;;;;;11.35;9.98;;;19.50;44.60;;;;;;5054721;28;20521;-63
2022/12/17 21:55:40;;;;;;;13.88;10.80;;;19.40;44.50;;;;;;5055148;28;20221;-63
2022/12/17 21:58:07;;;;;;;11.68;10.30;;;19.30;44.30;;;;;;5055376;28;20622;-63
2022/12/17 22:00:32;;;;;;;13.80;11.32;;;19.30;44.10;;;;;;5054313;28;20587;-63
2022/12/17 22:02:58;;;;;;;12.45;10.77;;;19.20;44.00;;;;;;5055544;28;20175;-62
2022/12/17 22:05:23;;;;;;;14.98;11.10;;;19.20;43.80;;;;;;5055499;28;20175;-63
2022/12/17 22:07:49;;;;;;;12.27;10.73;;;19.20;43.80;;;;;;5054425;28;20179;-63
2022/12/17 22:10:14;;;;;;;14.80;11.75;;;19.10;43.70;;;;;;5055166;28;20194;-63
2022/12/17 22:15:24;;;;;;;15.00;12.18;;;18.90;43.70;;;;;;5054346;28;20611;-63
2022/12/17 22:17:49;;;;;;;14.18;12.00;;;18.80;43.70;;;;;;5054952;28;20175;-64
2022/12/17 22:20:15;;;;;;;15.45;12.65;;;18.70;43.80;;;;;;5053696;28;20176;-63
2022/12/17 22:22:41;;;;;;;14.02;11.82;;;18.70;43.90;;;;;;5054048;28;20621;-63
2022/12/17 22:25:08;;;;;;;13.63;11.70;;;18.50;44.00;;;;;;5054993;28;20214;-62
2022/12/17 22:27:33;;;;;;;15.02;12.13;;;18.50;44.00;;;;;;5053837;28;20180;-62
2022/12/17 22:32:58;;;;;;;14.75;12.57;;;18.40;44.10;;;;;;5054493;28;20225;-62
2022/12/17 22:35:24;;;;;;;17.38;13.85;;;18.30;44.30;;;;;;5054075;28;20210;-63
2022/12/17 22:37:50;;;;;;;16.80;13.98;;;18.20;44.20;;;;;;5054477;28;20201;-63
2022/12/17 22:40:15;;;;;;;15.73;13.35;;;18.20;44.10;;;;;;5053288;28;20701;-64
2022/12/17 22:45:25;;;;;;;15.98;13.70;;;18.10;44.10;;;;;;5054553;28;20744;-64
2022/12/17 22:47:51;;;;;;;17.60;14.15;;;18.00;44.10;;;;;;5054160;28;20205;-62
2022/12/17 22:50:16;;;;;;;17.17;13.57;;;17.90;44.10;;;;;;5053454;28;20175;-60
2022/12/17 22:52:42;;;;;;;14.25;12.68;;;17.90;44.20;;;;;;5053967;28;20179;-61
2022/12/17 22:55:07;;;;;;;15.93;13.68;;;17.80;44.20;;;;;;5054695;28;20302;-61
2022/12/17 22:57:33;;;;;;;16.70;13.25;;;17.80;44.30;;;;;;5053529;28;20253;-61
2022/12/17 22:59:58;;;;;;;17.73;14.07;;;17.80;44.40;;;;;;5054064;28;20656;-61
2022/12/17 23:02:24;;;;;;;13.88;12.38;;;17.70;44.50;;;;;;5053995;28;20167;-61
2022/12/17 23:04:49;;;;;;;16.30;12.50;;;17.70;44.50;;;;;;5053033;28;20183;-60
2022/12/17 23:07:15;;;;;;;15.52;12.82;;;17.70;44.70;;;;;;5053917;28;20182;-60
2022/12/17 23:09:40;;;;;;;14.07;12.07;;;17.60;44.80;;;;;;5053196;28;20175;-61
2022/12/17 23:14:50;;;;;;;13.68;12.20;;;17.60;45.00;;;;;;5053551;28;20260;-61
2022/12/17 23:17:16;;;;;;;12.90;11.60;;;17.50;45.10;;;;;;5053391;28;20192;-61
2022/12/17 23:19:41;;;;;;;14.07;11.55;;;17.50;45.30;;;;;;5053627;28;20171;-61
2022/12/17 23:22:07;;;;;;;13.18;11.70;;;17.50;45.40;;;;;;5053842;28;20201;-61
2022/12/17 23:24:32;;;;;;;14.07;12.45;;;17.50;45.50;;;;;;5052863;28;20250;-61
2022/12/17 23:26:58;;;;;;;12.90;10.98;;;17.40;45.60;;;;;;5053846;28;20591;-60
2022/12/17 23:29:23;;;;;;;12.95;11.65;;;17.40;45.60;;;;;;5053925;28;20254;-60
2022/12/17 23:31:49;;;;;;;11.85;10.65;;;17.40;45.70;;;;;;5052510;28;20699;-61
2022/12/17 23:34:14;;;;;;;13.02;11.48;;;17.30;45.70;;;;;;5053630;28;20247;-61
2022/12/17 23:36:40;;;;;;;13.18;10.65;;;17.30;45.70;;;;;;5053409;28;20190;-61
2022/12/17 23:39:05;;;;;;;13.30;11.15;;;17.30;45.80;;;;;;5052676;28;20536;-61
2022/12/17 23:41:31;;;;;;;11.98;10.60;;;17.20;45.80;;;;;;5053374;28;20675;-61
2022/12/17 23:43:57;;;;;;;11.65;10.43;;;17.20;45.90;;;;;;5053611;28;20605;-61
2022/12/17 23:46:23;;;;;;;12.85;11.30;;;17.20;46.00;;;;;;5052668;28;20701;-61
2022/12/17 23:48:49;;;;;;;13.82;11.50;;;17.10;46.00;;;;;;5053212;28;20206;-61
2022/12/17 23:51:16;;;;;;;13.02;11.55;;;17.10;46.10;;;;;;5053479;28;20171;-60
2022/12/17 23:53:42;;;;;;;12.10;10.77;;;17.10;46.10;;;;;;5052303;28;20533;-60
2022/12/17 23:56:13;;;;;;;13.57;11.52;;;17.10;46.10;;;;;;5053211;28;20234;-61
2022/12/17 23:58:39;;;;;;;13.05;11.63;;;17.00;46.20;;;;;;5052674;28;20189;-61
